Time;durP1;ratioP1;P1;durP2;ratioP2;P2;SDS_P1;SDS_P2;PMS_P1;PMS_P2;Temp;Humidity;BMP_temperature;BMP_pressure;BME280_temperature;BME280_humidity;BME280_pressure;Samples;Min_cycle;Max_cycle;Signal;HPM_P1;HPM_P2
2021/04/23 00:01:23;;;;;;;;;;;;;;;5.57;63.85;100064.06;5096784;28;19951;-71
2021/04/23 00:03:55;;;;;;;;;;;;;;;5.51;63.78;100069.00;5115071;28;19923;-72
2021/04/23 00:06:29;;;;;;;;;;;;;;;5.42;64.10;100070.47;5115058;28;19930;-72
2021/04/23 00:09:01;;;;;;;;;;;;;;;5.42;63.97;100065.41;5114801;28;19924;-72
2021/04/23 00:11:34;;;;;;;;;;;;;;;5.38;63.64;100063.63;5096626;28;19974;-72
2021/04/23 00:14:06;;;;;;;;;;;;;;;5.36;63.37;100070.31;5114681;28;20319;-72
2021/04/23 00:16:37;;;;;;;;;;;;;;;5.38;63.70;100072.88;5114389;28;20450;-72
2021/04/23 00:19:09;;;;;;;;;;;;;;;5.36;63.35;100075.38;5096626;28;19973;-72
2021/04/23 00:21:43;;;;;;;;;;;;;;;5.31;63.07;100076.94;5114936;28;19924;-72
2021/04/23 00:24:12;;;;;;;;;;;;;;;5.20;63.41;100078.31;5114610;28;20015;-72
2021/04/23 00:26:42;;;;;;;;;;;;;;;5.12;63.53;100073.84;5114549;28;20022;-72
2021/04/23 00:29:14;;;;;;;;;;;;;;;5.00;64.26;100079.44;5114610;28;19932;-72
2021/04/23 00:34:25;;;;;;;;;;;;;;;5.03;64.11;100082.06;5114504;28;19923;-72
2021/04/23 00:36:57;;;;;;;;;;;;;;;5.03;64.11;100084.59;5114358;28;19971;-72
2021/04/23 00:39:29;;;;;;;;;;;;;;;5.07;64.08;100091.44;5114519;28;19933;-72
2021/04/23 00:42:00;;;;;;;;;;;;;;;4.96;63.81;100089.44;5114552;28;19967;-72
2021/04/23 00:44:28;;;;;;;;;;;;;;;4.92;64.50;100091.00;5114452;28;19973;-72
2021/04/23 00:46:59;;;;;;;;;;;;;;;4.89;64.24;100090.94;5114408;28;19935;-72
2021/04/23 00:49:30;;;;;;;;;;;;;;;4.68;64.23;100095.34;5114431;28;20422;-72
2021/04/23 00:52:03;;;;;;;;;;;;;;;4.65;64.63;100090.25;5114745;28;20365;-72
2021/04/23 00:54:35;;;;;;;;;;;;;;;4.69;64.79;100097.09;5114562;28;19931;-72
2021/04/23 00:57:06;;;;;;;;;;;;;;;4.70;65.22;100098.81;5114340;28;20022;-72
2021/04/23 00:59:36;;;;;;;;;;;;;;;4.68;65.83;100095.34;5114628;28;20019;-72
2021/04/23 01:02:09;;;;;;;;;;;;;;;4.68;65.73;100095.34;5114308;28;19931;-72
2021/04/23 01:04:42;;;;;;;;;;;;;;;4.73;65.43;100106.47;5099441;28;19923;-71
2021/04/23 01:07:17;;;;;;;;;;;;;;;4.81;65.24;100107.56;5118188;28;19924;-72
2021/04/23 01:09:48;;;;;;;;;;;;;;;4.81;65.75;100111.75;5118131;28;20018;-71
2021/04/23 01:12:19;;;;;;;;;;;;;;;4.85;65.97;100109.34;5118001;28;19923;-72
2021/04/23 01:14:50;;;;;;;;;;;;;;;4.86;66.03;100113.59;5118048;28;19924;-72
2021/04/23 01:17:21;;;;;;;;;;;;;;;4.88;65.91;100117.03;5117472;28;19923;-72
2021/04/23 01:19:52;;;;;;;;;;;;;;;4.91;66.14;100112.06;5118213;28;19957;-72
2021/04/23 01:22:25;;;;;;;;;;;;;;;4.93;65.85;100125.59;5117861;28;19928;-72
2021/04/23 01:24:53;;;;;;;;;;;;;;;4.89;65.47;100128.88;5118138;28;19927;-72
2021/04/23 01:27:24;;;;;;;;;;;;;;;4.93;65.67;100123.09;5117723;28;20060;-72
2021/04/23 01:29:55;;;;;;;;;;;;;;;4.91;65.28;100129.78;5117655;28;19924;-72
2021/04/23 01:32:26;;;;;;;;;;;;;;;4.84;65.93;100122.81;5117692;28;19924;-71
2021/04/23 01:34:58;;;;;;;;;;;;;;;4.78;65.47;100126.81;5117644;28;20010;-72
2021/04/23 01:37:30;;;;;;;;;;;;;;;4.74;65.93;100120.84;5117238;28;19973;-71
2021/04/23 01:40:01;;;;;;;;;;;;;;;4.66;65.91;100124.78;5117474;28;19931;-72
2021/04/23 01:42:29;;;;;;;;;;;;;;;4.63;65.40;100117.16;5117807;28;19931;-72
2021/04/23 01:44:58;;;;;;;;;;;;;;;4.58;65.85;100123.72;5117022;28;19931;-72
2021/04/23 01:47:29;;;;;;;;;;;;;;;4.43;65.99;100134.22;5117345;28;19962;-71
2021/04/23 01:50:00;;;;;;;;;;;;;;;4.24;66.54;100126.03;5117290;28;19924;-72
2021/04/23 01:52:33;;;;;;;;;;;;;;;4.21;66.13;100136.03;5099527;28;20290;-71
2021/04/23 01:55:07;;;;;;;;;;;;;;;4.13;66.17;100134.94;5099095;28;20351;-72
2021/04/23 01:57:38;;;;;;;;;;;;;;;4.05;66.47;100130.47;5117031;28;20323;-71
2021/04/23 02:00:12;;;;;;;;;;;;;;;4.04;66.62;100132.97;5117092;28;19923;-71
2021/04/23 02:02:41;;;;;;;;;;;;;;;4.03;67.54;100133.78;5117100;28;20022;-72
2021/04/23 02:05:12;;;;;;;;;;;;;;;3.98;67.46;100133.59;5116992;28;19923;-72
2021/04/23 02:07:45;;;;;;;;;;;;;;;3.99;67.88;100134.47;5116942;28;19924;-72
2021/04/23 02:10:17;;;;;;;;;;;;;;;3.98;67.65;100128.56;5116900;28;19923;-72
2021/04/23 02:12:49;;;;;;;;;;;;;;;3.97;67.86;100124.34;5116879;28;19924;-71
2021/04/23 02:15:21;;;;;;;;;;;;;;;3.98;67.48;100123.50;5116728;28;19959;-71
2021/04/23 02:17:52;;;;;;;;;;;;;;;3.90;67.82;100124.94;5116450;28;19925;-71
2021/04/23 02:20:29;;;;;;;;;;;;;;;3.92;67.31;100128.38;5116691;28;20342;-72
2021/04/23 02:23:02;;;;;;;;;;;;;;;4.02;67.39;100125.34;5116749;28;19930;-72
2021/04/23 02:25:34;;;;;;;;;;;;;;;4.05;67.53;100125.41;5116660;28;20389;-71
2021/04/23 02:28:06;;;;;;;;;;;;;;;4.02;67.27;100129.53;5116922;28;19924;-71
2021/04/23 02:30:36;;;;;;;;;;;;;;;3.95;67.33;100136.06;5116499;28;20450;-72
2021/04/23 02:33:08;;;;;;;;;;;;;;;3.93;67.63;100134.28;5116466;28;19946;-71
2021/04/23 02:35:36;;;;;;;;;;;;;;;3.92;67.92;100143.53;5116483;28;19963;-70
2021/04/23 02:38:08;;;;;;;;;;;;;;;3.96;68.39;100137.75;5116121;28;19923;-72
2021/04/23 02:40:37;;;;;;;;;;;;;;;3.88;68.17;100141.72;5116357;28;20400;-72
2021/04/23 02:43:09;;;;;;;;;;;;;;;3.80;67.81;100134.69;5116436;28;20019;-72
2021/04/23 02:45:38;;;;;;;;;;;;;;;3.77;68.42;100135.44;5116229;28;19924;-72
2021/04/23 02:48:13;;;;;;;;;;;;;;;3.72;68.60;100134.41;5116140;28;20373;-72
2021/04/23 02:50:42;;;;;;;;;;;;;;;3.73;68.26;100130.22;5116127;28;19970;-72
2021/04/23 02:53:15;;;;;;;;;;;;;;;3.79;68.67;100131.28;5116052;28;19971;-72
2021/04/23 02:55:44;;;;;;;;;;;;;;;3.77;69.03;100121.94;5115822;28;20002;-72
2021/04/23 02:58:19;;;;;;;;;;;;;;;3.75;68.48;100126.97;5115741;28;20444;-72
2021/04/23 03:00:48;;;;;;;;;;;;;;;3.73;68.58;100133.63;5115889;28;19924;-72
2021/04/23 03:03:15;;;;;;;;;;;;;;;3.65;68.78;100152.69;5115635;28;19933;-72
2021/04/23 03:05:44;;;;;;;;;;;;;;;3.59;68.86;100146.56;5097640;28;19930;-71
2021/04/23 03:08:13;;;;;;;;;;;;;;;3.62;69.68;100154.25;5115496;28;20333;-71
2021/04/23 03:10:42;;;;;;;;;;;;;;;3.56;69.84;100151.50;5115404;28;19927;-71
2021/04/23 03:13:12;;;;;;;;;;;;;;;3.57;69.31;100154.09;5115434;28;19923;-71
2021/04/23 03:15:41;;;;;;;;;;;;;;;3.60;69.49;100149.13;5115998;28;19930;-71
2021/04/23 03:18:12;;;;;;;;;;;;;;;3.53;70.01;100151.44;5115132;28;19923;-72
2021/04/23 03:20:39;;;;;;;;;;;;;;;3.54;70.07;100154.00;5115323;28;20296;-71
2021/04/23 03:23:07;;;;;;;;;;;;;;;3.45;69.85;100153.69;5115456;28;19966;-72
2021/04/23 03:25:36;;;;;;;;;;;;;;;3.43;70.27;100154.44;5114563;28;19974;-72
2021/04/23 03:28:06;;;;;;;;;;;;;;;3.39;69.89;100156.84;5115094;28;20385;-72
2021/04/23 03:30:35;;;;;;;;;;;;;;;3.38;70.29;100159.31;5115411;28;19938;-72
2021/04/23 03:33:03;;;;;;;;;;;;;;;3.40;70.28;100160.22;5115044;28;20018;-72
2021/04/23 03:35:31;;;;;;;;;;;;;;;3.39;70.17;100161.03;5114962;28;19928;-72
2021/04/23 03:37:59;;;;;;;;;;;;;;;3.35;70.09;100162.59;5114929;28;19923;-72
2021/04/23 03:40:30;;;;;;;;;;;;;;;3.34;70.84;100165.91;5114927;28;19924;-72
2021/04/23 03:42:57;;;;;;;;;;;;;;;3.27;70.62;100166.50;5114899;28;19923;-72
2021/04/23 03:45:26;;;;;;;;;;;;;;;3.28;70.50;100165.69;5114939;28;19970;-73
2021/04/23 03:47:54;;;;;;;;;;;;;;;3.31;70.25;100170.00;5114978;28;19931;-72
2021/04/23 03:50:24;;;;;;;;;;;;;;;3.29;70.88;100166.53;5114791;28;19928;-72
2021/04/23 03:52:54;;;;;;;;;;;;;;;3.24;71.02;100173.06;5114783;28;20373;-72
2021/04/23 03:55:23;;;;;;;;;;;;;;;3.23;70.29;100173.91;5114715;28;20374;-72
2021/04/23 03:57:51;;;;;;;;;;;;;;;3.22;71.22;100179.72;5114538;28;19927;-72
2021/04/23 04:00:21;;;;;;;;;;;;;;;3.25;70.80;100179.84;5114618;28;20022;-72
2021/04/23 04:02:50;;;;;;;;;;;;;;;3.30;71.43;100179.22;5115312;28;19931;-73
2021/04/23 04:05:18;;;;;;;;;;;;;;;3.26;71.03;100186.63;5114890;28;19924;-72
2021/04/23 04:07:46;;;;;;;;;;;;;;;3.28;71.06;100190.06;5114775;28;19959;-72
2021/04/23 04:10:14;;;;;;;;;;;;;;;3.30;71.72;100189.31;5114541;28;19969;-72
2021/04/23 04:12:42;;;;;;;;;;;;;;;3.42;71.43;100188.88;5115051;28;20403;-72
2021/04/23 04:15:10;;;;;;;;;;;;;;;3.56;71.21;100195.28;5114492;28;20370;-72
2021/04/23 04:17:38;;;;;;;;;;;;;;;3.72;71.43;100195.00;5128340;28;19927;-72
2021/04/23 04:20:09;;;;;;;;;;;;;;;3.81;70.62;100195.34;5135209;28;19959;-72
2021/04/23 04:22:37;;;;;;;;;;;;;;;4.01;70.22;100194.31;5135300;28;19966;-72
2021/04/23 04:25:06;;;;;;;;;;;;;;;4.20;70.45;100197.47;5134846;28;19953;-72
2021/04/23 04:27:33;;;;;;;;;;;;;;;4.17;70.47;100198.22;5134719;28;20341;-72
2021/04/23 04:30:01;;;;;;;;;;;;;;;4.17;70.49;100204.94;5134772;28;20334;-72
2021/04/23 04:32:29;;;;;;;;;;;;;;;4.22;70.49;100208.47;5134847;28;19968;-72
2021/04/23 04:34:57;;;;;;;;;;;;;;;4.26;70.31;100211.16;5135367;28;19923;-72
2021/04/23 04:37:25;;;;;;;;;;;;;;;4.29;70.40;100208.72;5116404;28;19923;-72
2021/04/23 04:39:53;;;;;;;;;;;;;;;4.30;70.46;100217.16;5138602;27;19953;-72
2021/04/23 04:42:21;;;;;;;;;;;;;;;4.33;69.84;100219.78;5138909;27;19927;-72
2021/04/23 04:44:49;;;;;;;;;;;;;;;4.36;70.39;100219.88;5139142;27;19923;-72
2021/04/23 04:47:17;;;;;;;;;;;;;;;4.50;70.50;100223.72;5138985;27;19923;-72
2021/04/23 04:49:45;;;;;;;;;;;;;;;4.64;70.38;100225.00;5139029;27;20305;-72
2021/04/23 04:52:13;;;;;;;;;;;;;;;4.72;69.91;100226.97;5138607;27;19927;-72
2021/04/23 04:54:41;;;;;;;;;;;;;;;4.83;69.92;100237.41;5138650;27;19930;-72
2021/04/23 04:57:09;;;;;;;;;;;;;;;4.91;68.91;100235.13;5138478;27;19927;-72
2021/04/23 04:59:37;;;;;;;;;;;;;;;4.98;68.80;100232.81;5138895;27;19930;-72
2021/04/23 05:02:04;;;;;;;;;;;;;;;5.08;68.06;100239.03;5138545;27;19953;-72
2021/04/23 05:04:33;;;;;;;;;;;;;;;5.19;68.05;100236.00;5138466;27;20287;-72
2021/04/23 05:07:00;;;;;;;;;;;;;;;5.35;68.09;100240.69;5138414;27;19929;-72
2021/04/23 05:09:28;;;;;;;;;;;;;;;5.45;67.70;100246.84;5138573;27;19923;-72
2021/04/23 05:11:57;;;;;;;;;;;;;;;5.53;67.76;100249.63;5120001;27;20291;-73
2021/04/23 05:14:26;;;;;;;;;;;;;;;5.63;67.12;100255.00;5138311;27;19927;-73
2021/04/23 05:16:54;;;;;;;;;;;;;;;5.73;66.95;100246.84;5119646;27;19930;-73
2021/04/23 05:19:21;;;;;;;;;;;;;;;5.88;66.40;100247.25;5138072;27;19927;-72
2021/04/23 05:21:49;;;;;;;;;;;;;;;6.00;65.82;100251.78;5138107;27;19931;-72
2021/04/23 05:24:17;;;;;;;;;;;;;;;6.08;65.35;100255.41;5138652;27;19924;-72
2021/04/23 05:26:45;;;;;;;;;;;;;;;6.14;65.00;100253.03;5138039;27;20411;-72
2021/04/23 05:29:14;;;;;;;;;;;;;;;6.28;65.06;100255.94;5119918;27;19930;-72
2021/04/23 05:31:41;;;;;;;;;;;;;;;6.43;65.23;100257.16;5138095;27;19943;-72
2021/04/23 05:34:10;;;;;;;;;;;;;;;6.62;65.21;100249.16;5137933;27;19977;-72
2021/04/23 05:36:38;;;;;;;;;;;;;;;6.84;64.83;100259.84;5138157;27;19931;-72
2021/04/23 05:39:06;;;;;;;;;;;;;;;6.98;63.97;100263.56;5137749;27;19923;-73
2021/04/23 05:41:33;;;;;;;;;;;;;;;7.04;62.82;100261.16;5137690;27;20035;-72
2021/04/23 05:44:01;;;;;;;;;;;;;;;7.14;62.21;100270.69;5119292;27;20410;-72
2021/04/23 05:46:30;;;;;;;;;;;;;;;7.17;61.74;100261.47;5137899;27;19923;-72
2021/04/23 05:48:58;;;;;;;;;;;;;;;7.28;61.02;100266.78;5119066;27;19931;-72
2021/04/23 05:51:25;;;;;;;;;;;;;;;7.36;60.89;100267.81;5137502;27;19923;-72
2021/04/23 05:53:58;;;;;;;;;;;;;;;7.50;60.01;100265.53;5137555;27;19924;-72
2021/04/23 05:56:25;;;;;;;;;;;;;;;7.60;59.70;100273.41;5137383;27;19980;-72
2021/04/23 05:58:54;;;;;;;;;;;;;;;7.73;59.53;100275.34;5137333;27;19923;-73
2021/04/23 06:01:22;;;;;;;;;;;;;;;7.86;59.00;100272.22;5137328;27;19934;-73
2021/04/23 06:03:50;;;;;;;;;;;;;;;7.98;58.49;100271.59;5119538;27;19938;-73
2021/04/23 06:06:18;;;;;;;;;;;;;;;8.02;57.51;100279.31;5137512;27;19923;-73
2021/04/23 06:08:46;;;;;;;;;;;;;;;8.10;57.19;100284.56;5137471;27;20025;-72
2021/04/23 06:11:17;;;;;;;;;;;;;;;8.16;56.83;100282.09;5137102;27;19969;-72
2021/04/23 06:13:46;;;;;;;;;;;;;;;8.26;56.29;100290.75;5137208;27;19945;-73
2021/04/23 06:16:14;;;;;;;;;;;;;;;8.33;56.54;100290.94;5136643;27;19973;-73
2021/04/23 06:18:41;;;;;;;;;;;;;;;8.40;56.40;100286.81;5137082;27;19928;-73
2021/04/23 06:21:11;;;;;;;;;;;;;;;8.50;55.87;100288.69;5136899;27;19937;-71
2021/04/23 06:23:39;;;;;;;;;;;;;;;8.61;55.24;100285.50;5136289;27;19924;-72
2021/04/23 06:26:07;;;;;;;;;;;;;;;8.75;55.48;100285.72;5136522;27;19930;-73
2021/04/23 06:28:35;;;;;;;;;;;;;;;8.83;55.18;100276.50;5136896;27;20364;-73
2021/04/23 06:31:04;;;;;;;;;;;;;;;8.90;54.33;100285.97;5118794;27;20283;-73
2021/04/23 06:33:34;;;;;;;;;;;;;;;9.00;53.93;100287.81;5136251;27;19990;-73
2021/04/23 06:36:02;;;;;;;;;;;;;;;9.09;53.63;100292.22;5136537;27;19967;-72
2021/04/23 06:38:31;;;;;;;;;;;;;;;9.26;54.17;100290.78;5136497;27;19927;-72
2021/04/23 06:40:59;;;;;;;;;;;;;;;9.50;53.14;100291.09;5136796;27;20280;-73
2021/04/23 06:43:27;;;;;;;;;;;;;;;9.63;52.85;100290.41;5136788;27;19927;-72
2021/04/23 06:45:54;;;;;;;;;;;;;;;9.72;52.56;100292.22;5118370;27;20377;-73
2021/04/23 06:48:22;;;;;;;;;;;;;;;9.92;52.45;100285.66;5136735;27;19923;-73
2021/04/23 06:50:50;;;;;;;;;;;;;;;10.13;52.13;100300.38;5136199;27;19931;-73
2021/04/23 06:53:18;;;;;;;;;;;;;;;10.31;51.81;100291.25;5136297;27;19976;-72
2021/04/23 06:55:47;;;;;;;;;;;;;;;10.45;51.67;100292.22;5136067;27;19992;-71
2021/04/23 06:58:14;;;;;;;;;;;;;;;10.52;51.05;100296.53;5136086;27;19924;-73
2021/04/23 07:00:42;;;;;;;;;;;;;;;10.59;51.20;100293.22;5135637;27;20022;-72
2021/04/23 07:03:11;;;;;;;;;;;;;;;10.67;50.99;100296.69;5135849;27;19923;-72
2021/04/23 07:05:40;;;;;;;;;;;;;;;10.73;50.48;100291.63;5135888;27;19972;-72
2021/04/23 07:08:07;;;;;;;;;;;;;;;10.97;50.16;100300.31;5135883;27;19976;-72
2021/04/23 07:10:35;;;;;;;;;;;;;;;11.16;50.06;100302.16;5136190;27;19986;-72
2021/04/23 07:13:04;;;;;;;;;;;;;;;11.15;49.95;100306.44;5136251;27;19932;-72
2021/04/23 07:15:33;;;;;;;;;;;;;;;11.16;50.31;100312.38;5135722;27;20014;-72
2021/04/23 07:18:01;;;;;;;;;;;;;;;11.25;49.93;100304.81;5135571;27;19984;-72
2021/04/23 07:20:38;;;;;;;;;;;;;;;11.33;50.65;100303.13;5135903;27;19927;-72
2021/04/23 07:23:07;;;;;;;;;;;;;;;11.42;50.25;100308.31;5135586;27;19923;-73
2021/04/23 07:25:35;;;;;;;;;;;;;;;11.42;49.54;100308.31;5135531;27;19992;-73
2021/04/23 07:28:04;;;;;;;;;;;;;;;11.42;49.62;100316.00;5135493;27;19924;-72
2021/04/23 07:30:34;;;;;;;;;;;;;;;11.49;49.79;100307.50;5135459;27;19955;-73
2021/04/23 07:33:04;;;;;;;;;;;;;;;11.60;49.82;100308.41;5135481;27;19923;-73
2021/04/23 07:35:45;;;;;;;;;;;;;;;11.83;49.46;100304.28;5120419;27;2112309;-72
2021/04/23 07:38:13;;;;;;;;;;;;;;;11.99;48.64;100310.31;5194828;27;19926;-72
2021/04/23 07:40:41;;;;;;;;;;;;;;;11.99;48.27;100307.75;5195073;27;19923;-72
2021/04/23 07:43:09;;;;;;;;;;;;;;;12.05;48.52;100318.84;5194852;27;20372;-73
2021/04/23 07:45:58;;;;;;;;;;;;;;;11.78;47.85;100321.28;5194727;27;19933;-70
2021/04/23 07:48:25;;;;;;;;;;;;;;;11.49;47.50;100321.97;5194909;27;20372;-70
2021/04/23 07:50:55;;;;;;;;;;;;;;;11.31;47.78;100330.38;5194451;27;20026;-71
2021/04/23 07:53:24;;;;;;;;;;;;;;;11.20;48.43;100324.34;5194510;27;19927;-72
2021/04/23 07:55:52;;;;;;;;;;;;;;;11.11;49.32;100324.28;5194506;27;19923;-73
2021/04/23 07:58:20;;;;;;;;;;;;;;;11.02;49.81;100329.31;5194488;27;19922;-71
2021/04/23 08:00:48;;;;;;;;;;;;;;;11.19;50.54;100328.59;5194458;27;20294;-72
2021/04/23 08:03:21;;;;;;;;;;;;;;;11.69;50.42;100316.16;5194243;27;19923;-71
2021/04/23 08:05:49;;;;;;;;;;;;;;;12.03;49.84;100319.69;5194331;27;19929;-71
2021/04/23 08:08:18;;;;;;;;;;;;;;;12.30;49.05;100316.38;5194265;27;19929;-70
2021/04/23 08:10:46;;;;;;;;;;;;;;;12.46;47.54;100307.88;5194225;27;19930;-69
2021/04/23 08:13:14;;;;;;;;;;;;;;;12.68;46.44;100304.50;5175599;27;19923;-72
2021/04/23 08:15:41;;;;;;;;;;;;;;;12.74;46.02;100317.31;5194102;27;20329;-71
2021/04/23 08:18:09;;;;;;;;;;;;;;;12.74;45.78;100304.50;5194142;27;19965;-71
2021/04/23 08:20:37;;;;;;;;;;;;;;;12.76;45.25;100301.06;5194080;27;20284;-70
2021/04/23 08:23:05;;;;;;;;;;;;;;;12.59;44.76;100310.47;5193980;27;19927;-70
2021/04/23 08:25:33;;;;;;;;;;;;;;;12.44;44.76;100313.00;5193850;27;19927;-70
2021/04/23 08:28:01;;;;;;;;;;;;;;;12.31;44.84;100316.38;5193632;27;20383;-71
2021/04/23 08:30:29;;;;;;;;;;;;;;;12.22;45.26;100320.59;5193682;27;20009;-71
2021/04/23 08:32:57;;;;;;;;;;;;;;;12.07;45.87;100317.16;5193733;27;19927;-71
2021/04/23 08:35:25;;;;;;;;;;;;;;;11.95;45.84;100322.22;5193455;27;19954;-72
2021/04/23 08:37:53;;;;;;;;;;;;;;;11.93;46.19;100316.25;5193900;27;19923;-71
2021/04/23 08:40:21;;;;;;;;;;;;;;;12.05;45.68;100318.84;5193485;27;19923;-70
2021/04/23 08:42:53;;;;;;;;;;;;;;;12.07;45.22;100321.41;5193433;27;19923;-71
2021/04/23 08:45:21;;;;;;;;;;;;;;;12.14;45.10;100323.13;5189738;27;20009;-71
2021/04/23 08:47:50;;;;;;;;;;;;;;;12.23;45.05;100330.00;5179140;27;19936;-71
2021/04/23 08:50:20;;;;;;;;;;;;;;;12.25;44.95;100323.19;5178909;27;19922;-71
2021/04/23 08:52:48;;;;;;;;;;;;;;;12.29;45.01;100324.91;5179683;27;20425;-69
2021/04/23 08:55:17;;;;;;;;;;;;;;;12.58;45.13;100324.13;5179183;27;19946;-71
2021/04/23 08:58:06;;;;;;;;;;;;;;;13.20;45.64;100331.84;5179273;27;20017;-71
2021/04/23 09:00:34;;;;;;;;;;;;;;;13.61;44.74;100318.94;5179240;27;19931;-70
2021/04/23 09:03:02;;;;;;;;;;;;;;;13.96;44.53;100318.84;5179127;27;20298;-70
2021/04/23 09:05:30;;;;;;;;;;;;;;;14.01;43.17;100319.69;5178702;27;19923;-70
2021/04/23 09:07:59;;;;;;;;;;;;;;;13.92;42.02;100319.69;5178855;27;19922;-71
2021/04/23 09:10:27;;;;;;;;;;;;;;;13.72;41.72;100326.63;5178813;27;19927;-71
2021/04/23 09:13:06;;;;;;;;;;;;;;;13.47;41.91;100330.09;5178886;27;19923;-71
2021/04/23 09:15:35;;;;;;;;;;;;;;;13.24;42.64;100338.69;5178655;27;20295;-70
2021/04/23 09:18:07;;;;;;;;;;;;;;;13.08;43.33;100336.97;5178811;27;19930;-71
2021/04/23 09:20:35;;;;;;;;;;;;;;;12.92;44.53;100336.94;5179093;27;19923;-70
2021/04/23 09:23:11;;;;;;;;;;;;;;;12.79;45.19;100341.19;5178772;27;19930;-70
2021/04/23 09:25:40;;;;;;;;;;;;;;;12.62;45.45;100340.34;5178672;27;20439;-70
2021/04/23 09:28:08;;;;;;;;;;;;;;;12.45;45.60;100327.50;5178486;27;19971;-70
2021/04/23 09:30:37;;;;;;;;;;;;;;;12.35;45.14;100330.91;5178808;27;20342;-70
2021/04/23 09:33:05;;;;;;;;;;;;;;;12.69;44.74;100331.81;5178579;27;19922;-71
2021/04/23 09:35:35;;;;;;;;;;;;;;;13.06;44.81;100328.44;5178245;27;19922;-70
2021/04/23 09:38:15;;;;;;;;;;;;;;;13.27;44.47;100328.41;5178456;27;20298;-70
2021/04/23 09:40:43;;;;;;;;;;;;;;;13.36;44.22;100323.25;5178452;27;19962;-71
2021/04/23 09:43:11;;;;;;;;;;;;;;;13.27;43.83;100323.28;5178452;27;19929;-71
2021/04/23 09:45:49;;;;;;;;;;;;;;;13.17;43.73;100326.72;5178316;27;19975;-71
2021/04/23 09:48:20;;;;;;;;;;;;;;;13.04;43.91;100321.56;5178402;27;20388;-71
2021/04/23 09:50:49;;;;;;;;;;;;;;;12.83;43.98;100327.56;5178263;27;19967;-71
2021/04/23 09:53:16;;;;;;;;;;;;;;;12.73;44.26;100313.03;5178234;27;19923;-71
2021/04/23 09:55:54;;;;;;;;;;;;;;;12.65;44.19;100314.72;5177703;27;20014;-71
2021/04/23 09:58:23;;;;;;;;;;;;;;;12.65;43.85;100319.84;5176950;27;20025;-72
2021/04/23 10:00:57;;;;;;;;;;;;;;;12.73;43.98;100318.16;5177952;27;19923;-72
2021/04/23 10:03:32;;;;;;;;;;;;;;;12.79;43.83;100310.47;5178041;27;19954;-71
2021/04/23 10:06:15;;;;;;;;;;;;;;;12.79;43.06;100313.03;5178007;27;19955;-71
2021/04/23 10:08:42;;;;;;;;;;;;;;;12.83;42.31;100314.75;5177640;27;19922;-71
2021/04/23 10:11:10;;;;;;;;;;;;;;;12.83;42.07;100312.19;5177788;27;19967;-71
2021/04/23 10:13:38;;;;;;;;;;;;;;;12.79;41.76;100313.03;5177995;27;19975;-71
2021/04/23 10:16:06;;;;;;;;;;;;;;;12.77;41.83;100310.47;5177665;27;20317;-70
2021/04/23 10:18:36;;;;;;;;;;;;;;;12.79;42.22;100307.91;5177577;27;19927;-71
2021/04/23 10:21:04;;;;;;;;;;;;;;;12.73;42.98;100318.16;5177188;27;19923;-71
2021/04/23 10:23:32;;;;;;;;;;;;;;;12.60;43.05;100309.59;5177679;27;20367;-71
2021/04/23 10:26:00;;;;;;;;;;;;;;;12.56;43.19;100314.72;5177433;27;20328;-71
2021/04/23 10:28:29;;;;;;;;;;;;;;;12.53;43.92;100310.44;5177468;27;20005;-71
2021/04/23 10:30:56;;;;;;;;;;;;;;;12.59;44.23;100314.72;5177071;27;19954;-72
2021/04/23 10:33:26;;;;;;;;;;;;;;;12.57;44.12;100311.31;5177327;27;19922;-71
2021/04/23 10:35:55;;;;;;;;;;;;;;;12.53;44.49;100301.91;5177038;27;20022;-71
2021/04/23 10:38:25;;;;;;;;;;;;;;;12.51;44.36;100307.03;5177124;27;19929;-71
2021/04/23 10:40:54;;;;;;;;;;;;;;;12.57;43.73;100307.03;5177297;27;19923;-71
2021/04/23 10:43:31;;;;;;;;;;;;;;;12.62;43.62;100302.75;5177277;27;19922;-72
2021/04/23 10:46:09;;;;;;;;;;;;;;;12.66;43.46;100301.94;5177126;27;19975;-71
2021/04/23 10:48:38;;;;;;;;;;;;;;;12.70;43.22;100307.91;5177635;27;19969;-71
2021/04/23 10:51:08;;;;;;;;;;;;;;;12.68;42.93;100304.50;5177083;27;19923;-71
2021/04/23 10:53:44;;;;;;;;;;;;;;;12.67;43.25;100305.34;5177103;27;19929;-71
2021/04/23 10:56:22;;;;;;;;;;;;;;;12.70;43.20;100308.75;5177067;27;19967;-71
2021/04/23 10:58:50;;;;;;;;;;;;;;;13.10;42.38;100309.63;5177236;27;19930;-72
2021/04/23 11:01:25;;;;;;;;;;;;;;;13.72;43.07;100298.41;5176835;27;19930;-71
2021/04/23 11:04:14;;;;;;;;;;;;;;;14.08;42.76;100295.69;5176901;27;19923;-71
2021/04/23 11:06:44;;;;;;;;;;;;;;;13.98;41.61;100301.72;5171192;27;19923;-71
2021/04/23 11:09:19;;;;;;;;;;;;;;;13.80;41.69;100299.22;5157926;27;19931;-73
2021/04/23 11:11:58;;;;;;;;;;;;;;;13.68;41.77;100300.13;5158402;27;20009;-71
2021/04/23 11:14:26;;;;;;;;;;;;;;;13.64;41.82;100300.13;5176866;27;20371;-71
2021/04/23 11:16:54;;;;;;;;;;;;;;;13.63;41.86;100295.88;5176661;27;19922;-71
2021/04/23 11:19:33;;;;;;;;;;;;;;;13.58;41.43;100292.47;5176523;27;19965;-71
2021/04/23 11:22:06;;;;;;;;;;;;;;;13.49;41.50;100292.47;5176901;27;19962;-71
2021/04/23 11:24:34;;;;;;;;;;;;;;;13.48;41.72;100293.34;5158168;27;19930;-71
2021/04/23 11:27:06;;;;;;;;;;;;;;;13.53;42.00;100294.19;5157949;27;19991;-72
2021/04/23 11:29:36;;;;;;;;;;;;;;;13.63;42.15;100290.75;5157995;27;19927;-71
2021/04/23 11:32:08;;;;;;;;;;;;;;;13.64;41.75;100292.44;5176499;27;20021;-71
2021/04/23 11:34:37;;;;;;;;;;;;;;;13.68;41.64;100294.13;5176103;27;20021;-71
2021/04/23 11:37:07;;;;;;;;;;;;;;;13.76;41.55;100289.81;5157767;27;19927;-72
2021/04/23 11:39:40;;;;;;;;;;;;;;;13.87;41.19;100290.63;5176388;27;19962;-72
2021/04/23 11:42:09;;;;;;;;;;;;;;;14.11;40.93;100280.25;5176419;27;19927;-72
2021/04/23 11:44:42;;;;;;;;;;;;;;;14.19;40.53;100283.63;5176384;27;19971;-71
2021/04/23 11:47:11;;;;;;;;;;;;;;;14.25;40.75;100293.88;5176348;27;20013;-72
2021/04/23 11:49:39;;;;;;;;;;;;;;;14.19;40.36;100281.06;5157882;27;19923;-71
2021/04/23 11:52:08;;;;;;;;;;;;;;;14.07;40.21;100284.56;5176408;27;19923;-72
2021/04/23 11:54:37;;;;;;;;;;;;;;;13.96;40.25;100285.47;5176022;27;19923;-71
2021/04/23 11:57:07;;;;;;;;;;;;;;;13.84;40.39;100285.53;5176666;27;19969;-72
2021/04/23 11:59:35;;;;;;;;;;;;;;;13.83;40.51;100278.69;5175795;27;19926;-72
2021/04/23 12:02:03;;;;;;;;;;;;;;;13.98;40.77;100279.47;5176102;27;19926;-72
2021/04/23 12:04:44;;;;;;;;;;;;;;;14.07;41.05;100270.88;5175949;27;20017;-72
2021/04/23 12:07:13;;;;;;;;;;;;;;;14.03;40.79;100276.88;5176037;27;19929;-70
2021/04/23 12:09:42;;;;;;;;;;;;;;;14.01;41.10;100278.59;5176219;27;19971;-72
2021/04/23 12:12:11;;;;;;;;;;;;;;;14.01;40.91;100273.47;5175851;27;19923;-72
2021/04/23 12:14:40;;;;;;;;;;;;;;;14.37;41.21;100275.84;5175662;27;19930;-72
2021/04/23 12:17:08;;;;;;;;;;;;;;;14.72;40.68;100271.31;5175998;27;20276;-72
2021/04/23 12:19:36;;;;;;;;;;;;;;;14.70;39.83;100275.63;5176029;27;20095;-72
2021/04/23 12:22:04;;;;;;;;;;;;;;;14.67;39.68;100270.50;5179112;27;20368;-72
2021/04/23 12:24:32;;;;;;;;;;;;;;;14.61;39.29;100273.09;5179938;27;19923;-71
2021/04/23 12:27:00;;;;;;;;;;;;;;;14.44;39.01;100264.69;5161505;27;19965;-70
2021/04/23 12:29:28;;;;;;;;;;;;;;;14.44;39.53;100264.69;5179835;27;19975;-72
2021/04/23 12:31:56;;;;;;;;;;;;;;;14.48;40.40;100271.50;5179712;27;19957;-71
2021/04/23 12:34:23;;;;;;;;;;;;;;;14.38;39.77;100263.84;5160862;27;19930;-71
2021/04/23 12:36:52;;;;;;;;;;;;;;;14.27;39.85;100263.91;5179651;27;19923;-71
2021/04/23 12:39:34;;;;;;;;;;;;;;;14.27;39.44;100261.34;5179965;27;20334;-71
2021/04/23 12:42:03;;;;;;;;;;;;;;;14.36;39.22;100263.88;5179511;27;19923;-72
2021/04/23 12:44:32;;;;;;;;;;;;;;;14.63;39.62;100255.97;5179624;27;19947;-72
2021/04/23 12:47:01;;;;;;;;;;;;;;;14.70;39.07;100259.34;5179423;27;19922;-72
2021/04/23 12:49:30;;;;;;;;;;;;;;;14.64;39.09;100257.66;5179758;27;20292;-72
2021/04/23 12:51:58;;;;;;;;;;;;;;;14.51;38.94;100258.63;5179467;27;19970;-72
2021/04/23 12:54:29;;;;;;;;;;;;;;;14.54;38.47;100248.31;5179282;27;19922;-72
2021/04/23 12:56:59;;;;;;;;;;;;;;;14.81;38.20;100249.81;5179375;27;19930;-71
2021/04/23 12:59:47;;;;;;;;;;;;;;;15.16;38.21;100242.63;5179360;27;19930;-71